Time,TemperatureF,DewpointF,PressureIn,WindDirection,WindDirectionDegrees,WindSpeedMPH,WindSpeedGustMPH,Humidity,HourlyPrecipIn,Conditions,Clouds,dailyrainin,SoftwareType,DateUTC
2013-12-08 00:01:00,23.0,21.8,30.49,SSE,157,0.0,5.0,95,0.00,,,0.00,Weather View 32 v70,2013-12-08 05:01:00,
2013-12-08 00:06:00,23.0,21.8,30.49,SSE,157,0.0,5.0,95,0.00,,,0.00,Weather View 32 v70,2013-12-08 05:06:00,
2013-12-08 00:11:00,23.0,21.8,30.50,SSE,157,0.0,5.0,95,0.00,,,0.00,Weather View 32 v70,2013-12-08 05:11:00,
2013-12-08 00:16:00,22.0,21.8,30.50,SSE,157,0.0,5.0,99,0.00,,,0.00,Weather View 32 v70,2013-12-08 05:16:00,
2013-12-08 00:21:00,22.0,21.8,30.50,SSE,157,0.0,5.0,99,0.00,,,0.00,Weather View 32 v70,2013-12-08 05:21:00,
2013-12-08 00:26:00,22.0,21.8,30.50,SSE,157,0.0,5.0,99,0.00,,,0.00,Weather View 32 v70,2013-12-08 05:26:00,
2013-12-08 00:31:00,22.0,21.8,30.50,SSE,157,0.0,5.0,99,0.00,,,0.00,Weather View 32 v70,2013-12-08 05:31:00,
2013-12-08 00:36:00,22.0,22.0,30.50,SSE,157,0.0,5.0,100,0.00,,,0.00,Weather View 32 v70,2013-12-08 05:36:00,
2013-12-08 00:41:00,22.0,21.8,30.50,SSE,157,0.0,5.0,99,0.00,,,0.00,Weather View 32 v70,2013-12-08 05:41:00,
2013-12-08 00:46:00,22.0,22.0,30.50,SSE,157,0.0,5.0,100,0.00,,,0.00,Weather View 32 v70,2013-12-08 05:46:00,
2013-12-08 00:51:00,22.0,22.0,30.50,SSE,157,0.0,3.0,100,0.00,,,0.00,Weather View 32 v70,2013-12-08 05:51:00,
2013-12-08 00:56:00,21.0,21.0,30.50,SSE,157,0.0,0.0,100,0.00,,,0.00,Weather View 32 v70,2013-12-08 05:56:00,
2013-12-08 01:01:00,21.0,21.0,30.51,SSE,157,0.0,0.0,100,0.00,,,0.00,Weather View 32 v70,2013-12-08 06:01:00,
2013-12-08 01:06:00,21.0,21.0,30.51,SSE,157,0.0,0.0,100,0.00,,,0.00,Weather View 32 v70,2013-12-08 06:06:00,
2013-12-08 01:11:00,21.0,21.0,30.51,SSE,157,0.0,0.0,100,0.00,,,0.00,Weather View 32 v70,2013-12-08 06:11:00,
2013-12-08 01:16:00,21.0,21.0,30.51,SSE,157,0.0,0.0,100,0.00,,,0.00,Weather View 32 v70,2013-12-08 06:16:00,
2013-12-08 01:21:00,21.0,21.0,30.52,SSE,157,0.0,0.0,100,0.00,,,0.00,Weather View 32 v70,2013-12-08 06:21:00,
2013-12-08 01:26:00,21.0,21.0,30.52,SSE,157,3.0,3.0,100,0.00,,,0.00,Weather View 32 v70,2013-12-08 06:26:00,
2013-12-08 01:31:00,21.0,21.0,30.51,SSE,157,0.0,4.0,100,0.00,,,0.00,Weather View 32 v70,2013-12-08 06:31:00,
2013-12-08 01:36:00,21.0,21.0,30.51,SSE,157,0.0,4.0,100,0.00,,,0.00,Weather View 32 v70,2013-12-08 06:36:00,
2013-12-08 01:41:00,21.0,21.0,30.51,SSE,157,0.0,4.0,100,0.00,,,0.00,Weather View 32 v70,2013-12-08 06:41:00,
2013-12-08 01:46:00,21.0,21.0,30.51,SSE,157,0.0,4.0,100,0.00,,,0.00,Weather View 32 v70,2013-12-08 06:46:00,
2013-12-08 01:51:00,20.0,20.0,30.52,SSE,157,0.0,4.0,100,0.00,,,0.00,Weather View 32 v70,2013-12-08 06:51:00,
2013-12-08 01:56:00,20.0,20.0,30.52,SSE,157,0.0,4.0,100,0.00,,,0.00,Weather View 32 v70,2013-12-08 06:56:00,
2013-12-08 02:01:00,20.0,20.0,30.52,SSE,157,0.0,4.0,100,0.00,,,0.00,Weather View 32 v70,2013-12-08 07:01:00,
2013-12-08 02:06:00,20.0,20.0,30.52,SSE,157,0.0,4.0,100,0.00,,,0.00,Weather View 32 v70,2013-12-08 07:06:00,
2013-12-08 02:11:00,20.0,20.0,30.52,SSE,157,0.0,4.0,100,0.00,,,0.00,Weather View 32 v70,2013-12-08 07:11:00,
2013-12-08 02:16:00,20.0,20.0,30.52,SSE,157,0.0,4.0,100,0.00,,,0.00,Weather View 32 v70,2013-12-08 07:16:00,
2013-12-08 02:21:00,20.0,20.0,30.52,SSE,157,0.0,4.0,100,0.00,,,0.00,Weather View 32 v70,2013-12-08 07:21:00,
2013-12-08 02:26:00,20.0,20.0,30.52,SSE,157,0.0,4.0,100,0.00,,,0.00,Weather View 32 v70,2013-12-08 07:26:00,
2013-12-08 02:31:00,20.0,20.0,30.53,SSE,157,0.0,3.0,100,0.00,,,0.00,Weather View 32 v70,2013-12-08 07:31:00,
2013-12-08 02:36:00,19.0,19.0,30.53,SSE,157,0.0,0.0,100,0.00,,,0.00,Weather View 32 v70,2013-12-08 07:36:00,
2013-12-08 02:41:00,19.0,19.0,30.53,SSE,157,0.0,0.0,100,0.00,,,0.00,Weather View 32 v70,2013-12-08 07:41:00,
2013-12-08 02:46:00,19.0,19.0,30.53,SSE,157,0.0,0.0,100,0.00,,,0.00,Weather View 32 v70,2013-12-08 07:46:00,
2013-12-08 02:51:00,19.0,19.0,30.52,SSE,157,0.0,0.0,100,0.00,,,0.00,Weather View 32 v70,2013-12-08 07:51:00,
2013-12-08 02:56:00,19.0,19.0,30.52,SSE,157,0.0,0.0,100,0.00,,,0.00,Weather View 32 v70,2013-12-08 07:56:00,
2013-12-08 03:01:00,19.0,19.0,30.52,SSE,157,0.0,0.0,100,0.00,,,0.00,Weather View 32 v70,2013-12-08 08:01:00,
2013-12-08 03:06:00,19.0,19.0,30.52,SSE,157,0.0,0.0,100,0.00,,,0.00,Weather View 32 v70,2013-12-08 08:06:00,
2013-12-08 03:11:00,19.0,19.0,30.53,SSE,157,0.0,0.0,100,0.00,,,0.00,Weather View 32 v70,2013-12-08 08:11:00,
2013-12-08 03:16:00,19.0,19.0,30.53,SSE,157,0.0,0.0,100,0.00,,,0.00,Weather View 32 v70,2013-12-08 08:16:00,
2013-12-08 03:21:00,19.0,19.0,30.53,SSE,157,0.0,0.0,100,0.00,,,0.00,Weather View 32 v70,2013-12-08 08:21:00,
2013-12-08 03:26:00,19.0,19.0,30.53,SSE,157,0.0,0.0,100,0.00,,,0.00,Weather View 32 v70,2013-12-08 08:26:00,
2013-12-08 03:31:00,18.0,18.0,30.54,SSE,157,0.0,0.0,100,0.00,,,0.00,Weather View 32 v70,2013-12-08 08:31:00,
2013-12-08 03:36:00,18.0,18.0,30.54,SSE,157,0.0,0.0,100,0.00,,,0.00,Weather View 32 v70,2013-12-08 08:36:00,
2013-12-08 03:41:00,18.0,18.0,30.54,SSE,157,0.0,0.0,100,0.00,,,0.00,Weather View 32 v70,2013-12-08 08:41:00,
2013-12-08 03:46:00,18.0,18.0,30.54,SSE,157,0.0,0.0,100,0.00,,,0.00,Weather View 32 v70,2013-12-08 08:46:00,
2013-12-08 03:51:00,18.0,18.0,30.54,SSE,157,0.0,0.0,100,0.00,,,0.00,Weather View 32 v70,2013-12-08 08:51:00,
2013-12-08 03:56:00,18.0,18.0,30.54,SSE,157,0.0,0.0,100,0.00,,,0.00,Weather View 32 v70,2013-12-08 08:56:00,
2013-12-08 04:01:00,18.0,18.0,30.55,SSE,157,0.0,0.0,100,0.00,,,0.00,Weather View 32 v70,2013-12-08 09:01:00,
2013-12-08 04:06:00,18.0,18.0,30.55,SSE,157,0.0,0.0,100,0.00,,,0.00,Weather View 32 v70,2013-12-08 09:06:00,
2013-12-08 04:11:00,18.0,18.0,30.55,SSE,157,0.0,0.0,100,0.00,,,0.00,Weather View 32 v70,2013-12-08 09:11:00,
2013-12-08 04:16:00,19.0,19.0,30.55,SSE,157,0.0,0.0,100,0.00,,,0.00,Weather View 32 v70,2013-12-08 09:16:00,
2013-12-08 04:21:00,19.0,19.0,30.55,NNW,337,0.0,3.0,100,0.00,,,0.00,Weather View 32 v70,2013-12-08 09:21:00,
2013-12-08 04:26:00,19.0,19.0,30.55,NNW,337,0.0,3.0,100,0.00,,,0.00,Weather View 32 v70,2013-12-08 09:26:00,
2013-12-08 04:31:00,19.0,19.0,30.55,NNW,337,0.0,3.0,100,0.00,,,0.00,Weather View 32 v70,2013-12-08 09:31:00,
2013-12-08 04:36:00,19.0,19.0,30.55,NNW,337,0.0,3.0,100,0.00,,,0.00,Weather View 32 v70,2013-12-08 09:36:00,
2013-12-08 04:41:00,19.0,19.0,30.55,NNW,337,0.0,3.0,100,0.00,,,0.00,Weather View 32 v70,2013-12-08 09:41:00,
2013-12-08 04:46:00,19.0,19.0,30.55,WNW,292,0.0,7.0,100,0.00,,,0.00,Weather View 32 v70,2013-12-08 09:46:00,
2013-12-08 04:51:00,20.0,20.0,30.56,NW,315,0.0,7.0,100,0.00,,,0.00,Weather View 32 v70,2013-12-08 09:51:00,
2013-12-08 04:56:00,20.0,20.0,30.56,NW,315,0.0,7.0,100,0.00,,,0.00,Weather View 32 v70,2013-12-08 09:56:00,
2013-12-08 05:01:00,41.0,41.0,30.37,South,180,0.0,0.0,100,0.00,,,0.00,Weather View 32 v70,2013-12-08 10:01:00,
2013-12-08 05:06:00,20.0,20.0,30.56,WNW,292,0.0,7.0,100,0.00,,,0.00,Weather View 32 v70,2013-12-08 10:06:00,
2013-12-08 05:11:00,20.0,20.0,30.56,SSW,202,3.0,7.0,100,0.00,,,0.00,Weather View 32 v70,2013-12-08 10:11:00,
2013-12-08 05:16:00,20.0,20.0,30.56,SSW,202,3.0,7.0,100,0.00,,,0.00,Weather View 32 v70,2013-12-08 10:16:00,
2013-12-08 05:21:00,20.0,20.0,30.57,SSW,202,0.0,7.0,100,0.00,,,0.00,Weather View 32 v70,2013-12-08 10:21:00,
2013-12-08 05:26:00,19.0,19.0,30.57,SSW,202,0.0,7.0,100,0.00,,,0.00,Weather View 32 v70,2013-12-08 10:26:00,
2013-12-08 05:31:00,19.0,19.0,30.57,SSW,202,0.0,7.0,100,0.00,,,0.00,Weather View 32 v70,2013-12-08 10:31:00,
2013-12-08 05:36:00,19.0,19.0,30.57,South,180,0.0,7.0,100,0.00,,,0.00,Weather View 32 v70,2013-12-08 10:36:00,
2013-12-08 05:41:00,19.0,19.0,30.57,South,180,1.0,7.0,100,0.00,,,0.00,Weather View 32 v70,2013-12-08 10:41:00,
2013-12-08 05:46:00,19.0,19.0,30.57,South,180,1.0,5.0,100,0.00,,,0.00,Weather View 32 v70,2013-12-08 10:46:00,
2013-12-08 05:51:00,19.0,19.0,30.58,South,180,3.0,5.0,100,0.00,,,0.00,Weather View 32 v70,2013-12-08 10:51:00,
2013-12-08 05:56:00,18.0,18.0,30.58,South,180,1.0,5.0,100,0.00,,,0.00,Weather View 32 v70,2013-12-08 10:56:00,
2013-12-08 06:02:00,18.0,18.0,30.58,South,180,0.0,4.0,100,0.00,,,0.00,Weather View 32 v70,2013-12-08 11:02:00,
2013-12-08 06:07:00,18.0,18.0,30.58,South,180,0.0,4.0,100,0.00,,,0.00,Weather View 32 v70,2013-12-08 11:07:00,
2013-12-08 06:12:00,18.0,18.0,30.58,South,180,0.0,4.0,100,0.00,,,0.00,Weather View 32 v70,2013-12-08 11:12:00,
2013-12-08 06:17:00,18.0,18.0,30.58,South,180,0.0,4.0,100,0.00,,,0.00,Weather View 32 v70,2013-12-08 11:17:00,
2013-12-08 06:22:00,18.0,18.0,30.59,South,180,3.0,4.0,100,0.00,,,0.00,Weather View 32 v70,2013-12-08 11:22:00,
2013-12-08 06:27:00,18.0,18.0,30.59,South,180,0.0,4.0,100,0.00,,,0.00,Weather View 32 v70,2013-12-08 11:27:00,
2013-12-08 06:32:00,41.0,41.0,30.37,South,180,0.0,0.0,100,0.00,,,0.00,Weather View 32 v70,2013-12-08 11:32:00,
2013-12-08 06:37:00,18.0,18.0,30.60,South,180,0.0,4.0,100,0.00,,,0.00,Weather View 32 v70,2013-12-08 11:37:00,
2013-12-08 06:42:00,18.0,18.0,30.60,South,180,2.0,4.0,100,0.00,,,0.00,Weather View 32 v70,2013-12-08 11:42:00,
2013-12-08 06:47:00,18.0,18.0,30.60,South,180,2.0,4.0,100,0.00,,,0.00,Weather View 32 v70,2013-12-08 11:47:00,
2013-12-08 06:52:00,18.0,18.0,30.60,South,180,0.0,4.0,100,0.00,,,0.00,Weather View 32 v70,2013-12-08 11:52:00,
2013-12-08 06:57:00,18.0,18.0,30.60,South,180,0.0,4.0,100,0.00,,,0.00,Weather View 32 v70,2013-12-08 11:57:00,
2013-12-08 07:02:00,18.0,18.0,30.60,South,180,0.0,4.0,100,0.00,,,0.00,Weather View 32 v70,2013-12-08 12:02:00,
2013-12-08 07:07:00,18.0,18.0,30.60,South,180,0.0,4.0,100,0.00,,,0.00,Weather View 32 v70,2013-12-08 12:07:00,
2013-12-08 07:12:00,18.0,18.0,30.60,South,180,0.0,4.0,100,0.00,,,0.00,Weather View 32 v70,2013-12-08 12:12:00,
2013-12-08 07:17:00,41.0,41.0,30.37,South,180,0.0,0.0,100,0.00,,,0.00,Weather View 32 v70,2013-12-08 12:17:00,
2013-12-08 07:22:00,18.0,18.0,30.60,South,180,0.0,4.0,100,0.00,,,0.00,Weather View 32 v70,2013-12-08 12:22:00,
2013-12-08 07:27:00,18.0,18.0,30.60,South,180,0.0,4.0,100,0.00,,,0.00,Weather View 32 v70,2013-12-08 12:27:00,
2013-12-08 07:32:00,18.0,18.0,30.60,South,180,0.0,4.0,100,0.00,,,0.00,Weather View 32 v70,2013-12-08 12:32:00,
2013-12-08 07:37:00,18.0,18.0,30.60,South,180,0.0,4.0,100,0.00,,,0.00,Weather View 32 v70,2013-12-08 12:37:00,
2013-12-08 07:42:00,19.0,19.0,30.61,South,180,0.0,4.0,100,0.00,,,0.00,Weather View 32 v70,2013-12-08 12:42:00,
2013-12-08 07:47:00,19.0,19.0,30.61,South,180,0.0,3.0,100,0.00,,,0.00,Weather View 32 v70,2013-12-08 12:47:00,
2013-12-08 07:52:00,19.0,19.0,30.61,South,180,0.0,1.0,100,0.00,,,0.00,Weather View 32 v70,2013-12-08 12:52:00,
2013-12-08 07:57:00,20.0,20.0,30.61,South,180,0.0,1.0,100,0.00,,,0.00,Weather View 32 v70,2013-12-08 12:57:00,
2013-12-08 08:02:00,20.0,20.0,30.61,South,180,0.0,2.0,100,0.00,,,0.00,Weather View 32 v70,2013-12-08 13:02:00,
2013-12-08 08:07:00,21.0,21.0,30.61,WNW,292,0.0,3.0,100,0.00,,,0.00,Weather View 32 v70,2013-12-08 13:07:00,
2013-12-08 08:12:00,21.0,21.0,30.62,WNW,292,0.0,3.0,100,0.00,,,0.00,Weather View 32 v70,2013-12-08 13:12:00,
2013-12-08 08:17:00,21.0,21.0,30.62,WNW,292,0.0,3.0,100,0.00,,,0.00,Weather View 32 v70,2013-12-08 13:17:00,
2013-12-08 08:22:00,22.0,22.0,30.61,WNW,292,0.0,3.0,100,0.00,,,0.00,Weather View 32 v70,2013-12-08 13:22:00,
2013-12-08 08:27:00,22.0,22.0,30.61,WNW,292,0.0,3.0,100,0.00,,,0.00,Weather View 32 v70,2013-12-08 13:27:00,
2013-12-08 08:32:00,23.0,21.8,30.62,NNW,337,5.0,5.0,95,0.00,,,0.00,Weather View 32 v70,2013-12-08 13:32:00,
2013-12-08 08:37:00,23.0,20.0,30.62,NW,315,2.0,7.0,88,0.00,,,0.00,Weather View 32 v70,2013-12-08 13:37:00,
2013-12-08 08:42:00,24.0,17.5,30.62,NNW,337,5.0,9.0,76,0.00,,,0.00,Weather View 32 v70,2013-12-08 13:42:00,
2013-12-08 08:47:00,25.0,17.6,30.62,North,360,8.0,9.0,73,0.00,,,0.00,Weather View 32 v70,2013-12-08 13:47:00,
2013-12-08 08:52:00,25.0,17.6,30.62,NNW,337,6.0,9.0,73,0.00,,,0.00,Weather View 32 v70,2013-12-08 13:52:00,
2013-12-08 08:57:00,25.0,16.9,30.62,NW,315,4.0,9.0,71,0.00,,,0.00,Weather View 32 v70,2013-12-08 13:57:00,
2013-12-08 09:02:00,25.0,16.6,30.62,NW,315,10.0,10.0,70,0.00,,,0.00,Weather View 32 v70,2013-12-08 14:02:00,
2013-12-08 09:07:00,25.0,16.3,30.62,NNW,337,4.0,10.0,69,0.00,,,0.00,Weather View 32 v70,2013-12-08 14:07:00,
2013-12-08 09:12:00,25.0,15.9,30.62,NW,315,5.0,10.0,68,0.00,,,0.00,Weather View 32 v70,2013-12-08 14:12:00,
2013-12-08 09:17:00,26.0,16.9,30.62,NNW,337,5.0,10.0,68,0.00,,,0.00,Weather View 32 v70,2013-12-08 14:17:00,
2013-12-08 09:22:00,26.0,16.9,30.62,NNW,337,0.0,10.0,68,0.00,,,0.00,Weather View 32 v70,2013-12-08 14:22:00,
2013-12-08 09:27:00,26.0,16.5,30.62,NNW,337,6.0,10.0,67,0.00,,,0.00,Weather View 32 v70,2013-12-08 14:27:00,
2013-12-08 09:32:00,26.0,16.2,30.63,NW,315,3.0,10.0,66,0.00,,,0.00,Weather View 32 v70,2013-12-08 14:32:00,
2013-12-08 09:37:00,26.0,16.2,30.63,NW,315,7.0,10.0,66,0.00,,,0.00,Weather View 32 v70,2013-12-08 14:37:00,
2013-12-08 09:42:00,26.0,16.2,30.63,NW,315,3.0,10.0,66,0.00,,,0.00,Weather View 32 v70,2013-12-08 14:42:00,
2013-12-08 09:47:00,26.0,16.2,30.63,NNW,337,4.0,10.0,66,0.00,,,0.00,Weather View 32 v70,2013-12-08 14:47:00,
2013-12-08 09:52:00,26.0,16.2,30.63,NW,315,3.0,10.0,66,0.00,,,0.00,Weather View 32 v70,2013-12-08 14:52:00,
2013-12-08 09:57:00,26.0,16.5,30.63,SW,225,1.0,10.0,67,0.00,,,0.00,Weather View 32 v70,2013-12-08 14:57:00,
2013-12-08 10:02:00,27.0,16.8,30.64,NW,315,0.0,10.0,65,0.00,,,0.00,Weather View 32 v70,2013-12-08 15:02:00,
2013-12-08 10:07:00,27.0,16.8,30.64,NW,315,0.0,10.0,65,0.00,,,0.00,Weather View 32 v70,2013-12-08 15:07:00,
2013-12-08 10:12:00,27.0,16.1,30.64,NNW,337,6.0,10.0,63,0.00,,,0.00,Weather View 32 v70,2013-12-08 15:12:00,
2013-12-08 10:17:00,27.0,16.8,30.64,SSW,202,0.0,10.0,65,0.00,,,0.00,Weather View 32 v70,2013-12-08 15:17:00,
2013-12-08 10:22:00,27.0,16.1,30.63,ENE,67,1.0,10.0,63,0.00,,,0.00,Weather View 32 v70,2013-12-08 15:22:00,
2013-12-08 10:27:00,27.0,16.1,30.63,North,360,2.0,10.0,63,0.00,,,0.00,Weather View 32 v70,2013-12-08 15:27:00,
2013-12-08 10:32:00,27.0,16.1,30.63,NW,315,5.0,10.0,63,0.00,,,0.00,Weather View 32 v70,2013-12-08 15:32:00,
2013-12-08 10:37:00,27.0,15.3,30.63,NNW,337,0.0,10.0,61,0.00,,,0.00,Weather View 32 v70,2013-12-08 15:37:00,
2013-12-08 10:42:00,28.0,15.5,30.62,North,360,0.0,10.0,59,0.00,,,0.00,Weather View 32 v70,2013-12-08 15:42:00,
2013-12-08 10:47:00,28.0,14.7,30.62,NW,315,5.0,10.0,57,0.00,,,0.00,Weather View 32 v70,2013-12-08 15:47:00,
2013-12-08 10:52:00,28.0,15.5,30.63,NNE,22,0.0,9.0,59,0.00,,,0.00,Weather View 32 v70,2013-12-08 15:52:00,
2013-12-08 10:57:00,28.0,15.5,30.63,NNE,22,2.0,9.0,59,0.00,,,0.00,Weather View 32 v70,2013-12-08 15:57:00,
2013-12-08 11:02:00,28.0,16.3,30.63,South,180,0.0,9.0,61,0.00,,,0.00,Weather View 32 v70,2013-12-08 16:02:00,
2013-12-08 11:07:00,28.0,15.5,30.63,NNW,337,0.0,9.0,59,0.00,,,0.00,Weather View 32 v70,2013-12-08 16:07:00,
2013-12-08 11:12:00,28.0,15.5,30.62,WNW,292,2.0,7.0,59,0.00,,,0.00,Weather View 32 v70,2013-12-08 16:12:00,
2013-12-08 11:17:00,29.0,16.1,30.62,NW,315,0.0,7.0,58,0.00,,,0.00,Weather View 32 v70,2013-12-08 16:17:00,
2013-12-08 11:22:00,29.0,16.5,30.62,WNW,292,0.0,7.0,59,0.16,,,0.00,Weather View 32 v70,2013-12-08 16:22:00,
2013-12-08 11:27:00,29.0,16.8,30.62,WNW,292,0.0,7.0,60,0.17,,,0.00,Weather View 32 v70,2013-12-08 16:27:00,
2013-12-08 11:32:00,29.0,16.5,30.61,NE,45,0.0,7.0,59,0.00,,,0.00,Weather View 32 v70,2013-12-08 16:32:00,
2013-12-08 11:37:00,29.0,16.8,30.61,WNW,292,2.0,7.0,60,0.00,,,0.00,Weather View 32 v70,2013-12-08 16:37:00,
2013-12-08 11:42:00,29.0,16.8,30.61,WSW,247,2.0,7.0,60,0.00,,,0.00,Weather View 32 v70,2013-12-08 16:42:00,
2013-12-08 11:47:00,29.0,16.1,30.61,South,180,3.0,7.0,58,0.00,,,0.00,Weather View 32 v70,2013-12-08 16:47:00,
2013-12-08 11:53:00,30.0,17.0,30.60,SE,135,0.0,7.0,58,0.00,,,0.00,Weather View 32 v70,2013-12-08 16:53:00,
2013-12-08 11:58:00,30.0,16.6,30.60,South,180,0.0,7.0,57,0.00,,,0.00,Weather View 32 v70,2013-12-08 16:58:00,
2013-12-08 12:03:00,30.0,16.6,30.59,NW,315,3.0,7.0,57,0.00,,,0.00,Weather View 32 v70,2013-12-08 17:03:00,
2013-12-08 12:08:00,29.0,15.3,30.59,NNW,337,5.0,7.0,56,0.00,,,0.00,Weather View 32 v70,2013-12-08 17:08:00,
2013-12-08 12:13:00,29.0,15.7,30.59,SSW,202,3.0,8.0,57,0.00,,,0.00,Weather View 32 v70,2013-12-08 17:13:00,
2013-12-08 12:18:00,29.0,15.7,30.59,NW,315,5.0,8.0,57,0.00,,,0.00,Weather View 32 v70,2013-12-08 17:18:00,
2013-12-08 12:23:00,29.0,15.7,30.58,NW,315,5.0,8.0,57,0.00,,,0.00,Weather View 32 v70,2013-12-08 17:23:00,
2013-12-08 12:28:00,29.0,15.7,30.58,NW,315,2.0,9.0,57,0.00,,,0.00,Weather View 32 v70,2013-12-08 17:28:00,
2013-12-08 12:33:00,29.0,15.3,30.57,NNW,337,5.0,9.0,56,0.00,,,0.00,Weather View 32 v70,2013-12-08 17:33:00,
2013-12-08 12:38:00,29.0,16.1,30.57,North,360,2.0,9.0,58,0.00,,,0.00,Weather View 32 v70,2013-12-08 17:38:00,
2013-12-08 12:43:00,29.0,15.7,30.57,NNW,337,5.0,9.0,57,0.00,,,0.00,Weather View 32 v70,2013-12-08 17:43:00,
2013-12-08 12:48:00,29.0,15.7,30.57,NW,315,1.0,9.0,57,0.00,,,0.00,Weather View 32 v70,2013-12-08 17:48:00,
2013-12-08 12:53:00,29.0,15.7,30.58,NW,315,4.0,9.0,57,0.00,,,0.00,Weather View 32 v70,2013-12-08 17:53:00,
2013-12-08 12:58:00,29.0,15.3,30.58,NW,315,4.0,9.0,56,0.00,,,0.00,Weather View 32 v70,2013-12-08 17:58:00,
2013-12-08 13:03:00,29.0,14.8,30.58,North,360,4.0,9.0,55,0.00,,,0.00,Weather View 32 v70,2013-12-08 18:03:00,
2013-12-08 13:08:00,29.0,15.3,30.58,NE,45,4.0,9.0,56,0.00,,,0.00,Weather View 32 v70,2013-12-08 18:08:00,
2013-12-08 13:13:00,29.0,15.7,30.58,NNE,22,3.0,9.0,57,0.00,,,0.00,Weather View 32 v70,2013-12-08 18:13:00,
2013-12-08 13:18:00,29.0,15.7,30.58,NW,315,4.0,10.0,57,0.00,,,0.00,Weather View 32 v70,2013-12-08 18:18:00,
2013-12-08 13:23:00,29.0,14.8,30.59,NW,315,4.0,10.0,55,0.00,,,0.00,Weather View 32 v70,2013-12-08 18:23:00,
2013-12-08 13:28:00,29.0,15.3,30.59,NW,315,8.0,10.0,56,0.00,,,0.00,Weather View 32 v70,2013-12-08 18:28:00,
2013-12-08 13:33:00,29.0,14.8,30.60,WNW,292,3.0,10.0,55,0.00,,,0.00,Weather View 32 v70,2013-12-08 18:33:00,
2013-12-08 13:38:00,29.0,15.3,30.60,NW,315,0.0,10.0,56,0.00,,,0.00,Weather View 32 v70,2013-12-08 18:38:00,
2013-12-08 13:43:00,29.0,14.8,30.60,SSE,157,0.0,10.0,55,0.00,,,0.00,Weather View 32 v70,2013-12-08 18:43:00,
2013-12-08 13:48:00,29.0,14.4,30.60,NW,315,9.0,10.0,54,0.00,,,0.00,Weather View 32 v70,2013-12-08 18:48:00,
2013-12-08 13:53:00,29.0,15.3,30.60,NW,315,4.0,10.0,56,0.00,,,0.00,Weather View 32 v70,2013-12-08 18:53:00,
2013-12-08 13:58:00,29.0,15.3,30.60,NW,315,0.0,10.0,56,0.00,,,0.00,Weather View 32 v70,2013-12-08 18:58:00,
2013-12-08 14:03:00,29.0,15.7,30.59,North,360,3.0,10.0,57,0.00,,,0.00,Weather View 32 v70,2013-12-08 19:03:00,
2013-12-08 14:08:00,29.0,15.7,30.59,NNW,337,7.0,10.0,57,0.00,,,0.00,Weather View 32 v70,2013-12-08 19:08:00,
2013-12-08 14:13:00,29.0,15.7,30.58,NNE,22,0.0,10.0,57,0.00,,,0.00,Weather View 32 v70,2013-12-08 19:13:00,
2013-12-08 14:18:00,29.0,15.7,30.58,NW,315,4.0,10.0,57,0.00,,,0.00,Weather View 32 v70,2013-12-08 19:18:00,
2013-12-08 14:23:00,29.0,16.1,30.58,NW,315,0.0,10.0,58,0.00,,,0.00,Weather View 32 v70,2013-12-08 19:23:00,
2013-12-08 14:28:00,29.0,16.1,30.58,NW,315,4.0,10.0,58,0.00,,,0.00,Weather View 32 v70,2013-12-08 19:28:00,
2013-12-08 14:33:00,29.0,16.1,30.58,NW,315,2.0,10.0,58,0.00,,,0.00,Weather View 32 v70,2013-12-08 19:33:00,
2013-12-08 14:38:00,29.0,16.1,30.58,NW,315,1.0,10.0,58,0.00,,,0.00,Weather View 32 v70,2013-12-08 19:38:00,
2013-12-08 14:43:00,29.0,16.1,30.57,South,180,0.0,10.0,58,0.00,,,0.00,Weather View 32 v70,2013-12-08 19:43:00,
2013-12-08 14:48:00,29.0,16.1,30.57,NW,315,5.0,10.0,58,0.00,,,0.00,Weather View 32 v70,2013-12-08 19:48:00,
2013-12-08 14:53:00,29.0,16.1,30.57,NNW,337,3.0,9.0,58,0.00,,,0.00,Weather View 32 v70,2013-12-08 19:53:00,
2013-12-08 14:58:00,29.0,16.8,30.57,North,360,1.0,9.0,60,0.00,,,0.00,Weather View 32 v70,2013-12-08 19:58:00,
2013-12-08 15:03:00,29.0,16.8,30.57,NE,45,3.0,9.0,60,0.00,,,0.00,Weather View 32 v70,2013-12-08 20:03:00,
2013-12-08 15:08:00,29.0,16.8,30.57,NNE,22,4.0,9.0,60,0.00,,,0.00,Weather View 32 v70,2013-12-08 20:08:00,
2013-12-08 15:13:00,29.0,16.8,30.57,NNW,337,5.0,8.0,60,0.00,,,0.00,Weather View 32 v70,2013-12-08 20:13:00,
2013-12-08 15:18:00,29.0,17.2,30.57,NE,45,3.0,7.0,61,0.00,,,0.00,Weather View 32 v70,2013-12-08 20:18:00,
2013-12-08 15:23:00,28.0,16.3,30.56,NNE,22,4.0,7.0,61,0.00,,,0.00,Weather View 32 v70,2013-12-08 20:23:00,
2013-12-08 15:29:00,28.0,16.3,30.56,NNE,22,4.0,8.0,61,0.00,,,0.00,Weather View 32 v70,2013-12-08 20:29:00,
2013-12-08 15:34:00,28.0,16.3,30.57,WNW,292,1.0,8.0,61,0.00,,,0.00,Weather View 32 v70,2013-12-08 20:34:00,
2013-12-08 15:39:00,28.0,16.3,30.57,North,360,6.0,8.0,61,0.00,,,0.00,Weather View 32 v70,2013-12-08 20:39:00,
2013-12-08 15:44:00,28.0,16.3,30.59,NNE,22,4.0,8.0,61,0.00,,,0.00,Weather View 32 v70,2013-12-08 20:44:00,
2013-12-08 15:49:00,28.0,16.7,30.59,NNE,22,4.0,8.0,62,0.00,,,0.00,Weather View 32 v70,2013-12-08 20:49:00,
2013-12-08 15:54:00,28.0,16.7,30.58,NNE,22,0.0,8.0,62,0.00,,,0.00,Weather View 32 v70,2013-12-08 20:54:00,
2013-12-08 15:59:00,28.0,16.7,30.58,NW,315,6.0,8.0,62,0.00,,,0.00,Weather View 32 v70,2013-12-08 20:59:00,
2013-12-08 16:04:00,28.0,16.7,30.59,NNW,337,0.0,8.0,62,0.00,,,0.00,Weather View 32 v70,2013-12-08 21:04:00,
2013-12-08 16:09:00,28.0,16.7,30.59,NNW,337,5.0,8.0,62,0.00,,,0.00,Weather View 32 v70,2013-12-08 21:09:00,
2013-12-08 16:14:00,28.0,16.7,30.61,NNW,337,3.0,8.0,62,0.00,,,0.00,Weather View 32 v70,2013-12-08 21:14:00,
2013-12-08 16:19:00,28.0,16.7,30.61,NNW,337,1.0,8.0,62,0.00,,,0.00,Weather View 32 v70,2013-12-08 21:19:00,
2013-12-08 16:24:00,28.0,16.7,30.60,NNW,337,4.0,8.0,62,0.00,,,0.00,Weather View 32 v70,2013-12-08 21:24:00,
2013-12-08 16:29:00,28.0,16.7,30.60,NNW,337,1.0,8.0,62,0.00,,,0.00,Weather View 32 v70,2013-12-08 21:29:00,
2013-12-08 16:34:00,28.0,16.7,30.60,NW,315,4.0,8.0,62,0.00,,,0.00,Weather View 32 v70,2013-12-08 21:34:00,
2013-12-08 16:39:00,28.0,16.7,30.60,NNW,337,3.0,8.0,62,0.00,,,0.00,Weather View 32 v70,2013-12-08 21:39:00,
2013-12-08 16:44:00,28.0,16.7,30.61,NNW,337,0.0,7.0,62,0.00,,,0.00,Weather View 32 v70,2013-12-08 21:44:00,
2013-12-08 16:49:00,28.0,17.0,30.61,NW,315,0.0,7.0,63,0.00,,,0.00,Weather View 32 v70,2013-12-08 21:49:00,
2013-12-08 16:54:00,28.0,17.0,30.60,NW,315,4.0,7.0,63,0.00,,,0.00,Weather View 32 v70,2013-12-08 21:54:00,
2013-12-08 16:59:00,28.0,17.0,30.60,NW,315,4.0,7.0,63,0.00,,,0.00,Weather View 32 v70,2013-12-08 21:59:00,
2013-12-08 17:04:00,28.0,17.0,30.61,WNW,292,0.0,7.0,63,0.00,,,0.00,Weather View 32 v70,2013-12-08 22:04:00,
2013-12-08 17:09:00,28.0,17.4,30.61,South,180,0.0,7.0,64,0.00,,,0.00,Weather View 32 v70,2013-12-08 22:09:00,
2013-12-08 17:14:00,28.0,17.8,30.61,South,180,0.0,7.0,65,0.00,,,0.00,Weather View 32 v70,2013-12-08 22:14:00,
2013-12-08 17:19:00,28.0,17.4,30.61,ENE,67,0.0,7.0,64,0.00,,,0.00,Weather View 32 v70,2013-12-08 22:19:00,
2013-12-08 17:24:00,28.0,17.4,30.60,ENE,67,0.0,7.0,64,0.00,,,0.00,Weather View 32 v70,2013-12-08 22:24:00,
2013-12-08 17:29:00,28.0,17.0,30.61,ENE,67,0.0,7.0,63,0.00,,,0.00,Weather View 32 v70,2013-12-08 22:29:00,
2013-12-08 17:34:00,28.0,17.0,30.61,ENE,67,0.0,5.0,63,0.00,,,0.00,Weather View 32 v70,2013-12-08 22:34:00,
2013-12-08 17:39:00,28.0,17.0,30.60,ENE,67,0.0,5.0,63,0.00,,,0.00,Weather View 32 v70,2013-12-08 22:39:00,
2013-12-08 17:44:00,28.0,17.4,30.60,ENE,67,0.0,5.0,64,0.00,,,0.00,Weather View 32 v70,2013-12-08 22:44:00,
2013-12-08 17:49:00,28.0,17.0,30.59,ENE,67,0.0,5.0,63,0.00,,,0.00,Weather View 32 v70,2013-12-08 22:49:00,
2013-12-08 17:54:00,28.0,17.8,30.59,ENE,67,1.0,5.0,65,0.00,,,0.00,Weather View 32 v70,2013-12-08 22:54:00,
2013-12-08 17:59:00,28.0,17.8,30.60,ENE,67,0.0,5.0,65,0.00,,,0.00,Weather View 32 v70,2013-12-08 22:59:00,
2013-12-08 18:04:00,28.0,17.8,30.60,NE,45,0.0,4.0,65,0.00,,,0.00,Weather View 32 v70,2013-12-08 23:04:00,
2013-12-08 18:09:00,28.0,17.4,30.60,NE,45,1.0,3.0,64,0.00,,,0.00,Weather View 32 v70,2013-12-08 23:09:00,
2013-12-08 18:14:00,28.0,17.8,30.60,NE,45,0.0,3.0,65,0.00,,,0.00,Weather View 32 v70,2013-12-08 23:14:00,
2013-12-08 18:19:00,28.0,17.0,30.60,ESE,112,0.0,3.0,63,0.00,,,0.00,Weather View 32 v70,2013-12-08 23:19:00,
2013-12-08 18:24:00,28.0,17.8,30.60,ESE,112,0.0,3.0,65,0.00,,,0.00,Weather View 32 v70,2013-12-08 23:24:00,
2013-12-08 18:29:00,28.0,18.1,30.60,ESE,112,0.0,3.0,66,0.00,,,0.00,Weather View 32 v70,2013-12-08 23:29:00,
2013-12-08 18:34:00,28.0,18.1,30.60,ESE,112,0.0,3.0,66,0.00,,,0.00,Weather View 32 v70,2013-12-08 23:34:00,
2013-12-08 18:39:00,28.0,18.5,30.60,ESE,112,2.0,3.0,67,0.00,,,0.00,Weather View 32 v70,2013-12-08 23:39:00,
2013-12-08 18:44:00,27.0,17.5,30.60,ESE,112,0.0,3.0,67,0.00,,,0.00,Weather View 32 v70,2013-12-08 23:44:00,
2013-12-08 18:49:00,28.0,18.5,30.60,ESE,112,2.0,3.0,67,0.00,,,0.00,Weather View 32 v70,2013-12-08 23:49:00,
2013-12-08 18:55:00,27.0,17.2,30.60,ESE,112,0.0,3.0,66,0.00,,,0.00,Weather View 32 v70,2013-12-08 23:55:00,
2013-12-08 19:00:00,28.0,18.5,30.61,ESE,112,0.0,3.0,67,0.00,,,0.00,Weather View 32 v70,2013-12-09 00:00:00,
2013-12-08 19:05:00,27.0,17.5,30.61,ESE,112,0.0,3.0,67,0.00,,,0.00,Weather View 32 v70,2013-12-09 00:05:00,
2013-12-08 19:10:00,28.0,18.5,30.61,ESE,112,0.0,3.0,67,0.00,,,0.00,Weather View 32 v70,2013-12-09 00:10:00,
2013-12-08 19:15:00,27.0,17.8,30.61,ESE,112,2.0,3.0,68,0.00,,,0.00,Weather View 32 v70,2013-12-09 00:15:00,
2013-12-08 19:20:00,28.0,18.8,30.60,ESE,112,0.0,3.0,68,0.00,,,0.00,Weather View 32 v70,2013-12-09 00:20:00,
2013-12-08 19:25:00,27.0,17.8,30.60,ESE,112,0.0,3.0,68,0.00,,,0.00,Weather View 32 v70,2013-12-09 00:25:00,
2013-12-08 19:30:00,28.0,18.1,30.59,SSE,157,3.0,4.0,66,0.00,,,0.00,Weather View 32 v70,2013-12-09 00:30:00,
2013-12-08 19:35:00,27.0,17.5,30.59,SSE,157,0.0,4.0,67,0.00,,,0.00,Weather View 32 v70,2013-12-09 00:35:00,
2013-12-08 19:40:00,28.0,18.5,30.60,SSE,157,0.0,4.0,67,0.00,,,0.00,Weather View 32 v70,2013-12-09 00:40:00,
2013-12-08 19:45:00,27.0,17.5,30.60,SSE,157,0.0,4.0,67,0.00,,,0.00,Weather View 32 v70,2013-12-09 00:45:00,
2013-12-08 19:50:00,28.0,18.5,30.59,SSE,157,0.0,4.0,67,0.00,,,0.00,Weather View 32 v70,2013-12-09 00:50:00,
2013-12-08 19:55:00,27.0,17.5,30.59,SSE,157,0.0,4.0,67,0.00,,,0.00,Weather View 32 v70,2013-12-09 00:55:00,
2013-12-08 20:00:00,28.0,18.1,30.59,SSE,157,0.0,4.0,66,0.00,,,0.00,Weather View 32 v70,2013-12-09 01:00:00,
2013-12-08 20:05:00,27.0,17.5,30.59,SSE,157,0.0,4.0,67,0.00,,,0.00,Weather View 32 v70,2013-12-09 01:05:00,
2013-12-08 20:10:00,28.0,18.1,30.60,SSE,157,1.0,4.0,66,0.00,,,0.00,Weather View 32 v70,2013-12-09 01:10:00,
2013-12-08 20:15:00,27.0,17.2,30.60,SSE,157,0.0,4.0,66,0.00,,,0.00,Weather View 32 v70,2013-12-09 01:15:00,
2013-12-08 20:20:00,28.0,18.1,30.60,SSE,157,2.0,4.0,66,0.00,,,0.00,Weather View 32 v70,2013-12-09 01:20:00,
2013-12-08 20:25:00,27.0,17.5,30.60,SSE,157,1.0,4.0,67,0.00,,,0.00,Weather View 32 v70,2013-12-09 01:25:00,
2013-12-08 20:30:00,28.0,18.1,30.60,SSE,157,1.0,4.0,66,0.00,,,0.00,Weather View 32 v70,2013-12-09 01:30:00,
2013-12-08 20:35:00,28.0,18.8,30.60,SSE,157,0.0,4.0,68,0.00,,,0.00,Weather View 32 v70,2013-12-09 01:35:00,
2013-12-08 20:40:00,28.0,18.8,30.60,SSE,157,2.0,4.0,68,0.00,,,0.00,Weather View 32 v70,2013-12-09 01:40:00,
2013-12-08 20:45:00,28.0,18.8,30.60,SSE,157,1.0,4.0,68,0.00,,,0.00,Weather View 32 v70,2013-12-09 01:45:00,
2013-12-08 20:50:00,28.0,18.5,30.60,SSE,157,1.0,3.0,67,0.00,,,0.00,Weather View 32 v70,2013-12-09 01:50:00,
2013-12-08 20:55:00,28.0,18.5,30.60,SSE,157,1.0,3.0,67,0.00,,,0.00,Weather View 32 v70,2013-12-09 01:55:00,
2013-12-08 21:00:00,28.0,18.5,30.59,SSE,157,1.0,3.0,67,0.00,,,0.00,Weather View 32 v70,2013-12-09 02:00:00,
2013-12-08 21:05:00,28.0,18.5,30.59,SSE,157,0.0,3.0,67,0.00,,,0.00,Weather View 32 v70,2013-12-09 02:05:00,
2013-12-08 21:10:00,28.0,18.1,30.59,SSE,157,0.0,3.0,66,0.00,,,0.00,Weather View 32 v70,2013-12-09 02:10:00,
2013-12-08 21:15:00,28.0,18.1,30.59,East,90,1.0,5.0,66,0.00,,,0.00,Weather View 32 v70,2013-12-09 02:15:00,
2013-12-08 21:20:00,28.0,17.8,30.59,East,90,3.0,5.0,65,0.00,,,0.00,Weather View 32 v70,2013-12-09 02:20:00,
2013-12-08 21:25:00,28.0,17.8,30.59,ESE,112,2.0,5.0,65,0.00,,,0.00,Weather View 32 v70,2013-12-09 02:25:00,
2013-12-08 21:30:00,28.0,17.8,30.58,ESE,112,0.0,6.0,65,0.00,,,0.00,Weather View 32 v70,2013-12-09 02:30:00,
2013-12-08 21:35:00,28.0,18.1,30.58,ESE,112,3.0,6.0,66,0.00,,,0.00,Weather View 32 v70,2013-12-09 02:35:00,
2013-12-08 21:40:00,28.0,18.1,30.57,East,90,0.0,6.0,66,0.00,,,0.00,Weather View 32 v70,2013-12-09 02:40:00,
2013-12-08 21:45:00,28.0,18.5,30.57,East,90,1.0,6.0,67,0.00,,,0.00,Weather View 32 v70,2013-12-09 02:45:00,
2013-12-08 21:50:00,28.0,18.1,30.58,East,90,0.0,6.0,66,0.00,,,0.00,Weather View 32 v70,2013-12-09 02:50:00,
2013-12-08 21:55:00,28.0,17.8,30.58,East,90,0.0,6.0,65,0.00,,,0.00,Weather View 32 v70,2013-12-09 02:55:00,
2013-12-08 22:00:00,28.0,17.0,30.58,East,90,0.0,6.0,63,0.00,,,0.00,Weather View 32 v70,2013-12-09 03:00:00,
2013-12-08 22:05:00,28.0,17.4,30.58,East,90,0.0,6.0,64,0.00,,,0.00,Weather View 32 v70,2013-12-09 03:05:00,
2013-12-08 22:10:00,28.0,16.7,30.57,East,90,4.0,6.0,62,0.00,,,0.00,Weather View 32 v70,2013-12-09 03:10:00,
2013-12-08 22:15:00,28.0,16.7,30.57,East,90,1.0,6.0,62,0.00,,,0.00,Weather View 32 v70,2013-12-09 03:15:00,
2013-12-08 22:20:00,28.0,16.3,30.57,NE,45,2.0,6.0,61,0.00,,,0.00,Weather View 32 v70,2013-12-09 03:20:00,
2013-12-08 22:25:00,28.0,16.3,30.57,NNE,22,0.0,6.0,61,0.00,,,0.00,Weather View 32 v70,2013-12-09 03:25:00,
2013-12-08 22:30:00,28.0,15.9,30.58,NNE,22,3.0,6.0,60,0.00,,,0.00,Weather View 32 v70,2013-12-09 03:30:00,
2013-12-08 22:35:00,28.0,15.9,30.58,NE,45,0.0,6.0,60,0.00,,,0.00,Weather View 32 v70,2013-12-09 03:35:00,
2013-12-08 22:40:00,28.0,15.5,30.57,ESE,112,0.0,6.0,59,0.00,,,0.00,Weather View 32 v70,2013-12-09 03:40:00,
2013-12-08 22:45:00,28.0,15.5,30.57,East,90,0.0,6.0,59,0.00,,,0.00,Weather View 32 v70,2013-12-09 03:45:00,
2013-12-08 22:50:00,28.0,16.3,30.56,East,90,2.0,7.0,61,0.00,,,0.00,Weather View 32 v70,2013-12-09 03:50:00,
2013-12-08 22:55:00,28.0,17.0,30.56,NE,45,3.0,7.0,63,0.00,,,0.00,Weather View 32 v70,2013-12-09 03:55:00,
2013-12-08 23:00:00,28.0,17.0,30.56,NE,45,3.0,7.0,63,0.00,,,0.00,Weather View 32 v70,2013-12-09 04:00:00,
2013-12-08 23:05:00,28.0,17.0,30.56,NNE,22,3.0,7.0,63,0.00,,,0.00,Weather View 32 v70,2013-12-09 04:05:00,
2013-12-08 23:10:00,28.0,16.7,30.56,NNE,22,4.0,7.0,62,0.00,,,0.00,Weather View 32 v70,2013-12-09 04:10:00,
2013-12-08 23:15:00,28.0,17.0,30.56,East,90,1.0,8.0,63,0.00,,,0.00,Weather View 32 v70,2013-12-09 04:15:00,
2013-12-08 23:20:00,28.0,16.7,30.54,NE,45,0.0,8.0,62,0.00,,,0.00,Weather View 32 v70,2013-12-09 04:20:00,
2013-12-08 23:25:00,28.0,17.0,30.54,ENE,67,0.0,8.0,63,0.00,,,0.00,Weather View 32 v70,2013-12-09 04:25:00,
2013-12-08 23:30:00,28.0,16.7,30.55,NNE,22,3.0,8.0,62,0.00,,,0.00,Weather View 32 v70,2013-12-09 04:30:00,
2013-12-08 23:35:00,28.0,17.0,30.55,ENE,67,3.0,8.0,63,0.00,,,0.00,Weather View 32 v70,2013-12-09 04:35:00,
2013-12-08 23:40:00,28.0,17.0,30.55,NNE,22,1.0,8.0,63,0.00,,,0.00,Weather View 32 v70,2013-12-09 04:40:00,
2013-12-08 23:45:00,28.0,17.4,30.55,NNE,22,4.0,8.0,64,0.00,,,0.00,Weather View 32 v70,2013-12-09 04:45:00,
2013-12-08 23:50:00,28.0,17.0,30.54,NE,45,2.0,8.0,63,0.00,,,0.00,Weather View 32 v70,2013-12-09 04:50:00,
2013-12-08 23:55:00,28.0,16.7,30.54,NE,45,2.0,8.0,62,0.00,,,0.00,Weather View 32 v70,2013-12-09 04:55:00,